createdAt,value
2022-08-17T00:00:42.925Z,25.60
2022-08-17T00:03:10.570Z,25.53
2022-08-17T00:05:36.938Z,25.64
2022-08-17T00:08:03.322Z,25.54
2022-08-17T00:10:29.685Z,25.60
2022-08-17T00:12:58.784Z,25.69
2022-08-17T00:15:25.144Z,25.73
2022-08-17T00:17:51.513Z,25.70
2022-08-17T00:20:17.887Z,25.73
2022-08-17T00:22:46.386Z,25.62
2022-08-17T00:25:12.750Z,25.70
2022-08-17T00:27:39.106Z,25.67
2022-08-17T00:30:05.465Z,25.66
2022-08-17T00:33:11.875Z,25.73
2022-08-17T00:35:18.170Z,25.73
2022-08-17T00:37:44.539Z,25.68
2022-08-17T00:40:10.986Z,25.58
2022-08-17T00:42:37.416Z,25.55
2022-08-17T00:45:03.772Z,25.54
2022-08-17T00:47:30.135Z,25.56
2022-08-17T00:49:56.510Z,25.53
2022-08-17T00:52:22.892Z,25.63
2022-08-17T00:54:49.263Z,25.55
2022-08-17T00:57:15.630Z,25.57
2022-08-17T00:59:41.993Z,25.46
2022-08-17T01:02:08.357Z,25.43
2022-08-17T01:04:34.730Z,25.46
2022-08-17T01:07:01.091Z,25.47
2022-08-17T01:09:27.495Z,25.48
2022-08-17T01:11:53.869Z,25.48
2022-08-17T01:14:20.233Z,25.57
2022-08-17T01:16:46.579Z,25.54
2022-08-17T01:19:12.933Z,25.50
2022-08-17T01:21:39.300Z,25.41
2022-08-17T01:24:05.668Z,25.34
2022-08-17T01:26:32.042Z,25.55
2022-08-17T01:28:58.418Z,25.60
2022-08-17T01:31:24.776Z,25.53
2022-08-17T01:33:51.131Z,25.51
2022-08-17T01:36:17.490Z,25.55
2022-08-17T01:38:43.859Z,25.47
2022-08-17T01:41:10.226Z,25.53
2022-08-17T01:43:36.593Z,25.52
2022-08-17T01:46:03.907Z,25.53
2022-08-17T01:48:30.489Z,25.54
2022-08-17T01:50:56.854Z,25.49
2022-08-17T01:53:23.204Z,25.48
2022-08-17T01:55:49.569Z,25.52
2022-08-17T01:58:15.925Z,25.43
2022-08-17T02:00:48.321Z,25.23
2022-08-17T02:03:26.769Z,25.36
2022-08-17T02:05:53.133Z,25.38
2022-08-17T02:08:20.086Z,25.41
2022-08-17T02:10:46.958Z,25.44
2022-08-17T02:13:13.379Z,25.32
2022-08-17T02:15:39.736Z,25.28
2022-08-17T02:18:06.099Z,25.23
2022-08-17T02:20:41.709Z,25.24
2022-08-17T02:23:09.109Z,25.37
2022-08-17T02:25:35.469Z,25.29
2022-08-17T02:28:01.822Z,25.33
2022-08-17T02:31:01.353Z,25.30
2022-08-17T02:33:14.517Z,25.32
2022-08-17T02:35:40.883Z,25.33
2022-08-17T02:38:07.257Z,25.26
2022-08-17T02:40:36.185Z,25.42
2022-08-17T02:43:03.127Z,25.43
2022-08-17T02:45:29.489Z,25.40
2022-08-17T02:47:55.849Z,25.39
2022-08-17T02:50:22.209Z,25.35
2022-08-17T02:52:57.276Z,25.37
2022-08-17T02:55:29.040Z,25.28
2022-08-17T02:57:55.405Z,25.19
2022-08-17T03:00:21.785Z,25.15
2022-08-17T03:02:48.158Z,25.01
2022-08-17T03:05:14.532Z,25.13
2022-08-17T03:07:40.898Z,25.13
2022-08-17T03:10:07.255Z,25.16
2022-08-17T03:12:33.629Z,25.07
2022-08-17T03:15:00.018Z,24.92
2022-08-17T03:17:26.381Z,25.00
2022-08-17T03:19:52.763Z,25.02
2022-08-17T03:22:37.116Z,24.99
2022-08-17T03:25:04.697Z,25.02
2022-08-17T03:27:37.090Z,25.10
2022-08-17T03:30:05.866Z,25.15
2022-08-17T03:32:32.232Z,25.10
2022-08-17T03:34:58.598Z,25.00
2022-08-17T03:37:24.965Z,25.07
2022-08-17T03:39:51.365Z,25.11
2022-08-17T03:42:31.397Z,25.05
2022-08-17T03:44:59.215Z,24.91
2022-08-17T03:47:25.573Z,24.81
2022-08-17T03:49:51.943Z,24.83
2022-08-17T03:52:18.332Z,24.87
2022-08-17T03:54:44.722Z,24.77
2022-08-17T03:57:11.103Z,24.68
2022-08-17T03:59:37.471Z,24.79
2022-08-17T04:02:03.842Z,24.85
2022-08-17T04:04:30.209Z,24.70
2022-08-17T04:06:56.569Z,24.58
2022-08-17T04:09:22.934Z,24.57
2022-08-17T04:11:49.303Z,24.70
2022-08-17T04:14:15.685Z,24.70
2022-08-17T04:16:42.061Z,24.45
2022-08-17T04:19:08.436Z,24.47
2022-08-17T04:21:34.810Z,24.52
2022-08-17T04:24:01.175Z,24.37
2022-08-17T04:26:53.001Z,24.03
2022-08-17T04:29:13.889Z,24.08
2022-08-17T04:31:40.261Z,24.33
2022-08-17T04:34:06.634Z,24.36
2022-08-17T04:36:33.000Z,24.49
2022-08-17T04:38:59.369Z,24.79
2022-08-17T04:41:25.741Z,25.03
2022-08-17T04:43:52.100Z,25.17
2022-08-17T04:46:18.470Z,25.22
2022-08-17T04:48:44.849Z,25.35
2022-08-17T04:51:11.221Z,25.40
2022-08-17T04:53:37.601Z,25.44
2022-08-17T04:56:04.008Z,25.48
2022-08-17T04:58:30.410Z,25.52
2022-08-17T05:00:56.867Z,25.53
2022-08-17T05:03:23.294Z,25.54
2022-08-17T05:05:49.924Z,25.55
2022-08-17T05:08:16.436Z,25.53
2022-08-17T05:10:45.411Z,25.56
2022-08-17T05:13:12.141Z,25.54
2022-08-17T05:15:38.509Z,25.50
2022-08-17T05:18:11.380Z,25.56
2022-08-17T05:20:37.773Z,25.52
2022-08-17T05:23:04.147Z,25.54
2022-08-17T05:25:30.537Z,25.59
2022-08-17T05:28:00.817Z,25.55
2022-08-17T05:30:28.517Z,25.58
2022-08-17T05:32:55.173Z,25.63
2022-08-17T05:35:21.728Z,25.58
2022-08-17T05:37:48.120Z,25.59
2022-08-17T05:40:14.493Z,25.61
2022-08-17T05:42:40.856Z,25.64
2022-08-17T05:45:07.234Z,25.62
2022-08-17T05:47:33.616Z,25.63
2022-08-17T05:49:59.974Z,25.61
2022-08-17T05:52:28.285Z,25.62
2022-08-17T05:54:54.662Z,25.62
2022-08-17T05:57:22.155Z,25.66
2022-08-17T05:59:49.146Z,25.65
2022-08-17T06:02:15.509Z,25.67
2022-08-17T06:04:41.880Z,25.69
2022-08-17T06:07:08.250Z,25.68
2022-08-17T06:09:34.610Z,25.69
2022-08-17T06:12:00.975Z,25.68
2022-08-17T06:14:28.877Z,25.71
2022-08-17T06:16:55.235Z,25.70
2022-08-17T06:19:21.602Z,25.69
2022-08-17T06:21:47.973Z,25.70
2022-08-17T06:24:14.343Z,25.71
2022-08-17T06:26:43.305Z,25.71
2022-08-17T06:29:09.928Z,25.73
2022-08-17T06:31:45.283Z,25.73
2022-08-17T06:34:11.657Z,25.69
2022-08-17T06:36:38.024Z,25.67
2022-08-17T06:39:04.417Z,25.66
2022-08-17T06:41:30.790Z,25.67
2022-08-17T06:43:57.159Z,25.66
2022-08-17T06:46:23.540Z,25.67
2022-08-17T06:48:49.918Z,25.67
2022-08-17T06:51:16.276Z,25.66
2022-08-17T06:53:42.650Z,25.68
2022-08-17T06:56:09.032Z,25.71
2022-08-17T06:58:35.397Z,25.68
2022-08-17T07:01:03.111Z,25.70
2022-08-17T07:03:29.536Z,25.69
2022-08-17T07:05:55.903Z,25.69
2022-08-17T07:08:27.686Z,25.75
2022-08-17T07:10:56.380Z,25.78
2022-08-17T07:13:22.753Z,25.82
2022-08-17T07:15:50.947Z,25.82
2022-08-17T07:18:20.312Z,25.80
2022-08-17T07:20:46.675Z,25.84
2022-08-17T07:23:13.060Z,25.78
2022-08-17T07:25:39.436Z,25.77
2022-08-17T07:28:06.843Z,25.80
2022-08-17T07:30:45.528Z,25.81
2022-08-17T07:33:13.919Z,25.88
2022-08-17T07:35:41.300Z,25.87
2022-08-17T07:38:25.310Z,25.87
2022-08-17T07:40:53.064Z,25.91
2022-08-17T07:43:23.108Z,25.89
2022-08-17T07:45:50.081Z,25.90
2022-08-17T07:48:16.454Z,25.91
2022-08-17T07:50:42.821Z,25.91
2022-08-17T07:53:16.001Z,25.93
2022-08-17T07:55:42.373Z,25.92
2022-08-17T07:58:08.748Z,25.97
2022-08-17T08:00:35.137Z,25.95
2022-08-17T08:03:01.550Z,25.98
2022-08-17T08:05:48.736Z,26.01
2022-08-17T08:08:14.287Z,26.00
2022-08-17T08:10:42.828Z,25.98
2022-08-17T08:13:12.258Z,26.00
2022-08-17T08:15:40.580Z,26.03
2022-08-17T08:18:11.631Z,26.00
2022-08-17T08:20:51.936Z,26.03
2022-08-17T08:23:19.977Z,26.03
2022-08-17T08:25:48.789Z,26.02
2022-08-17T08:28:19.798Z,26.08
2022-08-17T08:30:46.174Z,26.07
2022-08-17T08:33:12.554Z,26.10
2022-08-17T08:35:38.926Z,26.09
2022-08-17T08:38:05.295Z,26.17
2022-08-17T08:40:31.658Z,26.16
2022-08-17T08:42:58.013Z,26.14
2022-08-17T08:45:24.375Z,26.13
2022-08-17T08:47:50.975Z,26.11
2022-08-17T08:50:37.039Z,26.11
2022-08-17T08:53:03.784Z,26.06
2022-08-17T08:55:32.293Z,26.13
2022-08-17T08:57:58.656Z,26.14
2022-08-17T09:00:25.012Z,26.17
2022-08-17T09:02:51.374Z,26.17
2022-08-17T09:05:17.738Z,26.19
2022-08-17T09:07:44.156Z,26.19
2022-08-17T09:10:10.525Z,26.22
2022-08-17T09:12:36.893Z,26.28
2022-08-17T09:15:03.283Z,26.27
2022-08-17T09:17:29.646Z,26.25
2022-08-17T09:19:56.001Z,26.29
2022-08-17T09:22:22.372Z,26.29
2022-08-17T09:24:48.757Z,26.28
2022-08-17T09:27:15.123Z,26.27
2022-08-17T09:29:41.487Z,26.24
2022-08-17T09:32:07.856Z,26.33
2022-08-17T09:34:34.230Z,26.32
2022-08-17T09:37:01.626Z,26.27
2022-08-17T09:39:28.109Z,26.30
2022-08-17T09:41:54.522Z,26.26
2022-08-17T09:44:22.788Z,26.17
2022-08-17T09:46:50.166Z,26.26
2022-08-17T09:49:16.531Z,26.28
2022-08-17T09:51:42.885Z,26.28
2022-08-17T09:54:35.189Z,26.30
2022-08-17T09:57:11.881Z,26.19
2022-08-17T09:59:41.980Z,26.17
2022-08-17T10:02:08.407Z,26.19
2022-08-17T10:04:39.602Z,26.23
2022-08-17T10:07:05.981Z,26.23
2022-08-17T10:09:32.375Z,26.21
2022-08-17T10:11:58.976Z,26.24
2022-08-17T10:14:38.048Z,26.25
2022-08-17T10:17:10.612Z,26.28
2022-08-17T10:19:36.997Z,26.25
2022-08-17T10:22:14.904Z,26.29
2022-08-17T10:25:21.025Z,26.29
2022-08-17T10:27:36.820Z,26.26
2022-08-17T10:30:03.236Z,26.26
2022-08-17T10:32:29.602Z,26.23
2022-08-17T10:34:55.977Z,26.22
2022-08-17T10:37:22.346Z,26.27
2022-08-17T10:39:52.309Z,26.24
2022-08-17T10:42:30.393Z,26.23
2022-08-17T10:44:59.244Z,26.24
2022-08-17T10:47:25.606Z,26.22
2022-08-17T10:49:51.966Z,26.25
2022-08-17T10:52:18.337Z,26.26
2022-08-17T10:54:44.692Z,26.21
2022-08-17T10:57:11.049Z,26.23
2022-08-17T10:59:37.425Z,26.25
2022-08-17T11:02:03.796Z,26.23
2022-08-17T11:04:30.172Z,26.19
2022-08-17T11:06:56.533Z,26.20
2022-08-17T11:09:22.900Z,26.21
2022-08-17T11:11:49.259Z,26.25
2022-08-17T11:14:15.622Z,26.25
2022-08-17T11:16:41.976Z,26.28
2022-08-17T11:19:08.332Z,26.27
2022-08-17T11:21:34.701Z,26.23
2022-08-17T11:24:01.065Z,26.26
2022-08-17T11:26:27.430Z,26.24
2022-08-17T11:28:53.787Z,26.21
2022-08-17T11:31:20.155Z,26.25
2022-08-17T11:34:04.473Z,26.24
2022-08-17T11:36:30.829Z,26.23
2022-08-17T11:38:57.193Z,26.24
2022-08-17T11:41:23.711Z,26.22
2022-08-17T11:43:50.081Z,26.21
2022-08-17T11:46:16.453Z,26.23
2022-08-17T11:48:42.822Z,26.27
2022-08-17T11:51:09.181Z,26.22
2022-08-17T11:53:35.535Z,26.23
2022-08-17T11:56:01.904Z,26.26
2022-08-17T11:58:28.340Z,26.26
2022-08-17T12:00:54.706Z,26.25
2022-08-17T12:03:21.099Z,26.26
2022-08-17T12:05:47.501Z,26.22
2022-08-17T12:08:13.867Z,26.23
2022-08-17T12:10:40.228Z,26.24
2022-08-17T12:13:06.602Z,26.25
2022-08-17T12:15:32.962Z,26.24
2022-08-17T12:17:59.448Z,26.26
2022-08-17T12:20:25.856Z,26.31
2022-08-17T12:22:52.207Z,26.28
2022-08-17T12:25:18.557Z,26.29
2022-08-17T12:28:05.571Z,26.24
2022-08-17T12:30:31.259Z,26.24
2022-08-17T12:32:57.636Z,26.29
2022-08-17T12:35:23.990Z,26.29
2022-08-17T12:37:50.578Z,26.24
2022-08-17T12:40:17.026Z,26.24
2022-08-17T12:42:43.393Z,26.28
2022-08-17T12:45:09.751Z,26.28
2022-08-17T12:47:36.124Z,26.26
2022-08-17T12:50:02.479Z,26.27
2022-08-17T12:52:28.860Z,26.28
2022-08-17T12:54:55.223Z,26.29
2022-08-17T12:57:21.598Z,26.29
2022-08-17T12:59:47.997Z,26.30
2022-08-17T13:02:15.096Z,26.28
2022-08-17T13:04:41.464Z,26.31
2022-08-17T13:07:07.831Z,26.32
2022-08-17T13:09:36.070Z,26.29
2022-08-17T13:12:07.493Z,26.29
2022-08-17T13:14:34.247Z,26.28
2022-08-17T13:17:00.682Z,26.26
2022-08-17T13:19:39.897Z,26.27
2022-08-17T13:22:07.641Z,26.27
2022-08-17T13:24:38.364Z,26.26
2022-08-17T13:27:08.281Z,26.28
2022-08-17T13:29:34.933Z,26.29
2022-08-17T13:32:04.378Z,26.29
2022-08-17T13:34:31.544Z,26.28
2022-08-17T13:36:59.767Z,26.26
2022-08-17T13:39:26.283Z,26.27
2022-08-17T13:41:52.692Z,26.28
2022-08-17T13:44:19.049Z,26.26
2022-08-17T13:46:45.405Z,26.26
2022-08-17T13:49:16.658Z,26.25
2022-08-17T13:51:43.011Z,26.24
2022-08-17T13:54:09.361Z,26.25
2022-08-17T13:56:38.700Z,26.24
2022-08-17T13:59:05.659Z,26.25
2022-08-17T14:01:32.077Z,26.21
2022-08-17T14:03:58.533Z,26.24
2022-08-17T14:06:52.291Z,26.23
2022-08-17T14:09:11.233Z,26.22
2022-08-17T14:11:37.601Z,26.22
2022-08-17T14:14:03.959Z,26.25
2022-08-17T14:16:30.318Z,26.24
2022-08-17T14:18:57.515Z,26.26
2022-08-17T14:21:23.942Z,26.23
2022-08-17T14:23:54.900Z,26.22
2022-08-17T14:26:21.439Z,26.23
2022-08-17T14:28:56.708Z,26.24
2022-08-17T14:31:23.397Z,26.25
2022-08-17T14:33:49.759Z,26.26
2022-08-17T14:36:16.116Z,26.29
2022-08-17T14:38:42.493Z,26.28
2022-08-17T14:41:08.853Z,26.25
2022-08-17T14:43:35.209Z,26.28
2022-08-17T14:46:01.572Z,26.28
2022-08-17T14:48:27.931Z,26.26
2022-08-17T14:50:54.282Z,26.29
2022-08-17T14:53:20.634Z,26.26
2022-08-17T14:55:47.516Z,26.28
2022-08-17T14:58:15.075Z,26.27
2022-08-17T15:00:41.445Z,26.28
2022-08-17T15:03:07.809Z,26.24
2022-08-17T15:05:34.182Z,26.28
2022-08-17T15:08:00.559Z,26.24
2022-08-17T15:10:26.972Z,26.26
2022-08-17T15:12:53.361Z,26.25
2022-08-17T15:15:19.718Z,26.25
2022-08-17T15:17:46.257Z,26.28
2022-08-17T15:20:14.923Z,26.25
2022-08-17T15:22:41.597Z,26.24
2022-08-17T15:25:07.975Z,26.27
2022-08-17T15:27:34.365Z,26.22
2022-08-17T15:30:00.722Z,26.23
2022-08-17T15:32:27.080Z,26.23
2022-08-17T15:34:53.450Z,26.21
2022-08-17T15:37:19.800Z,26.19
2022-08-17T15:39:46.235Z,26.17
2022-08-17T15:42:12.672Z,26.18
2022-08-17T15:44:39.037Z,26.17
2022-08-17T15:47:05.411Z,26.17
2022-08-17T15:49:31.778Z,26.13
2022-08-17T15:51:58.191Z,26.13
2022-08-17T15:54:24.606Z,26.10
2022-08-17T15:56:58.122Z,26.13
2022-08-17T15:59:24.482Z,26.11
2022-08-17T16:03:13.293Z,26.13
2022-08-17T16:04:40.243Z,26.13
2022-08-17T16:07:10.423Z,26.11
2022-08-17T16:09:36.794Z,26.11
2022-08-17T16:12:03.169Z,26.09
2022-08-17T16:14:34.212Z,26.13
2022-08-17T16:17:01.643Z,26.09
2022-08-17T16:19:28.002Z,26.11
2022-08-17T16:21:54.373Z,26.11
2022-08-17T16:24:20.773Z,26.11
2022-08-17T16:26:47.125Z,26.13
2022-08-17T16:29:13.482Z,26.13
2022-08-17T16:31:39.840Z,26.11
2022-08-17T16:34:17.971Z,26.13
2022-08-17T16:36:54.852Z,26.13
2022-08-17T16:39:22.648Z,26.14
2022-08-17T16:41:49.013Z,26.10
2022-08-17T16:44:15.726Z,26.12
2022-08-17T16:46:45.531Z,26.14
2022-08-17T16:49:12.490Z,26.14
2022-08-17T16:51:53.967Z,26.14
2022-08-17T16:54:20.329Z,26.13
2022-08-17T16:56:46.708Z,26.10
2022-08-17T16:59:32.289Z,26.12
2022-08-17T17:01:59.415Z,26.11
2022-08-17T17:04:25.767Z,26.12
2022-08-17T17:06:52.164Z,26.11
2022-08-17T17:09:18.526Z,26.11
2022-08-17T17:11:44.882Z,26.12
2022-08-17T17:14:11.237Z,26.11
2022-08-17T17:16:37.591Z,26.13
2022-08-17T17:19:05.545Z,26.10
2022-08-17T17:21:31.934Z,26.12
2022-08-17T17:23:58.298Z,26.08
2022-08-17T17:26:24.664Z,26.13
2022-08-17T17:28:51.047Z,26.13
2022-08-17T17:31:17.438Z,26.13
2022-08-17T17:33:43.806Z,26.13
2022-08-17T17:36:10.168Z,26.14
2022-08-17T17:38:36.529Z,26.12
2022-08-17T17:41:03.138Z,26.15
2022-08-17T17:43:44.867Z,26.09
2022-08-17T17:46:28.545Z,26.10
2022-08-17T17:48:55.562Z,26.14
2022-08-17T17:51:55.053Z,26.04
2022-08-17T17:54:08.279Z,26.11
2022-08-17T17:56:43.890Z,26.17
2022-08-17T17:59:12.672Z,26.13
2022-08-17T18:01:39.459Z,26.10
2022-08-17T18:04:08.281Z,26.05
2022-08-17T18:06:44.075Z,26.09
2022-08-17T18:09:10.437Z,26.07
2022-08-17T18:11:37.361Z,26.11
2022-08-17T18:14:03.919Z,26.06
2022-08-17T18:16:31.929Z,26.05
2022-08-17T18:18:58.459Z,26.07
2022-08-17T18:21:24.828Z,26.09
2022-08-17T18:23:51.210Z,26.07
2022-08-17T18:26:17.565Z,26.11
2022-08-17T18:28:43.923Z,26.10
2022-08-17T18:31:10.285Z,26.07
2022-08-17T18:33:36.646Z,26.12
2022-08-17T18:36:03.024Z,26.09
2022-08-17T18:38:29.447Z,26.14
2022-08-17T18:40:57.155Z,26.11
2022-08-17T18:43:23.607Z,26.09
2022-08-17T18:45:50.036Z,26.10
2022-08-17T18:48:16.477Z,26.11
2022-08-17T18:50:42.927Z,26.16
2022-08-17T18:53:09.785Z,26.17
2022-08-17T18:55:36.155Z,26.13
2022-08-17T18:58:03.789Z,26.03
2022-08-17T19:00:30.233Z,26.14
2022-08-17T19:02:56.691Z,26.13
2022-08-17T19:05:23.184Z,26.14
2022-08-17T19:07:49.951Z,26.21
2022-08-17T19:10:16.706Z,26.08
2022-08-17T19:12:43.137Z,26.19
2022-08-17T19:15:09.567Z,26.16
2022-08-17T19:17:35.995Z,26.16
2022-08-17T19:20:02.391Z,26.17
2022-08-17T19:22:30.988Z,26.14
2022-08-17T19:25:02.571Z,26.20
2022-08-17T19:27:41.868Z,26.25
2022-08-17T19:30:16.932Z,26.19
2022-08-17T19:32:46.576Z,26.17
2022-08-17T19:35:17.289Z,26.16
2022-08-17T19:37:43.973Z,26.16
2022-08-17T19:40:10.462Z,26.24
2022-08-17T19:42:37.054Z,26.18
2022-08-17T19:45:03.577Z,26.20
2022-08-17T19:47:51.515Z,26.19
2022-08-17T19:50:16.362Z,26.21
2022-08-17T19:52:42.731Z,26.19
2022-08-17T19:55:09.118Z,26.18
2022-08-17T19:57:35.497Z,26.15
2022-08-17T20:00:01.876Z,26.20
2022-08-17T20:02:28.251Z,26.17
2022-08-17T20:04:54.627Z,26.23
2022-08-17T20:07:20.992Z,26.11
2022-08-17T20:09:47.347Z,26.13
2022-08-17T20:12:13.708Z,26.11
2022-08-17T20:14:40.076Z,26.10
2022-08-17T20:17:20.326Z,26.19
2022-08-17T20:19:49.662Z,26.20
2022-08-17T20:22:16.026Z,26.27
2022-08-17T20:24:42.397Z,26.17
2022-08-17T20:27:08.757Z,26.17
2022-08-17T20:29:39.564Z,26.20
2022-08-17T20:32:07.016Z,26.14
2022-08-17T20:34:36.747Z,26.16
2022-08-17T20:37:04.028Z,26.13
2022-08-17T20:39:34.823Z,26.13
2022-08-17T20:42:02.826Z,26.08
2022-08-17T20:44:29.268Z,26.04
2022-08-17T20:46:55.642Z,26.03
2022-08-17T20:49:22.009Z,26.01
2022-08-17T20:52:00.765Z,25.95
2022-08-17T20:54:28.221Z,26.03
2022-08-17T20:56:54.580Z,26.08
2022-08-17T20:59:20.970Z,26.01
2022-08-17T21:01:47.383Z,26.00
2022-08-17T21:04:13.789Z,25.99
2022-08-17T21:06:40.157Z,26.02
2022-08-17T21:09:06.518Z,25.98
2022-08-17T21:12:01.494Z,25.94
2022-08-17T21:14:19.214Z,25.96
2022-08-17T21:16:45.569Z,25.97
2022-08-17T21:19:11.921Z,25.93
2022-08-17T21:21:38.290Z,25.99
2022-08-17T21:24:04.642Z,25.95
2022-08-17T21:26:31.083Z,25.85
2022-08-17T21:29:00.728Z,25.80
2022-08-17T21:31:27.984Z,25.84
2022-08-17T21:33:55.989Z,25.87
2022-08-17T21:36:22.354Z,25.83
2022-08-17T21:38:48.715Z,25.83
2022-08-17T21:41:15.079Z,25.79
2022-08-17T21:43:41.445Z,25.76
2022-08-17T21:46:07.801Z,25.72
2022-08-17T21:48:34.192Z,25.70
2022-08-17T21:51:00.635Z,25.66
2022-08-17T21:53:32.192Z,25.68
2022-08-17T21:55:59.334Z,25.61
2022-08-17T21:58:25.701Z,25.53
2022-08-17T22:00:52.111Z,25.53
2022-08-17T22:03:18.538Z,25.55
2022-08-17T22:05:44.906Z,25.58
2022-08-17T22:08:16.523Z,25.55
2022-08-17T22:10:43.749Z,25.51
2022-08-17T22:13:16.484Z,25.56
2022-08-17T22:15:43.801Z,25.43
2022-08-17T22:18:10.157Z,25.45
2022-08-17T22:20:36.518Z,25.41
2022-08-17T22:23:02.872Z,25.42
2022-08-17T22:25:29.224Z,25.42
2022-08-17T22:27:55.593Z,25.41
2022-08-17T22:30:21.961Z,25.42
2022-08-17T22:32:48.324Z,25.43
2022-08-17T22:35:14.687Z,25.40
2022-08-17T22:37:41.068Z,25.45
2022-08-17T22:40:07.501Z,25.50
2022-08-17T22:42:33.950Z,25.44
2022-08-17T22:45:00.313Z,25.50
2022-08-17T22:47:26.669Z,25.49
2022-08-17T22:49:54.528Z,25.48
2022-08-17T22:52:21.039Z,25.54
2022-08-17T22:54:47.392Z,25.40
2022-08-17T22:57:13.758Z,25.38
2022-08-17T22:59:40.129Z,25.37
2022-08-17T23:02:06.494Z,25.34
2022-08-17T23:04:32.860Z,25.43
2022-08-17T23:06:59.221Z,25.49
2022-08-17T23:09:25.579Z,25.42
2022-08-17T23:11:51.954Z,25.42
2022-08-17T23:14:18.301Z,25.43
2022-08-17T23:16:44.674Z,25.43
2022-08-17T23:19:11.043Z,25.37
2022-08-17T23:21:37.425Z,25.34
2022-08-17T23:24:03.795Z,25.36
2022-08-17T23:26:32.194Z,25.34
2022-08-17T23:28:58.553Z,25.36
2022-08-17T23:31:25.760Z,25.37
2022-08-17T23:33:52.407Z,25.33
2022-08-17T23:36:18.755Z,25.31
2022-08-17T23:38:45.119Z,25.30
2022-08-17T23:41:11.477Z,25.32
2022-08-17T23:43:37.833Z,25.41
2022-08-17T23:46:04.228Z,25.23
2022-08-17T23:48:35.691Z,25.24
2022-08-17T23:51:04.244Z,25.25
2022-08-17T23:53:30.796Z,25.23
2022-08-17T23:56:03.938Z,25.16
2022-08-17T23:58:36.306Z,25.22
